Terminal Aerodrome Forecast
Issued by NWS Austin/San Antonio, TX

Home | Current Version | Previous Version | Text Only | Print | Product List | Glossary On
Versions: 1 2 3 4 5 6 7 8 9 10 11 12 13 14 15 16 17 18 19 20 21 22 23 24 25 26 27 28 29 30 31
640
FTUS44 KEWX 300520
TAFSAT
TAF
KSAT 300520Z 3006/3112 12007KT P6SM SKC
     FM300900 08003KT P6SM BKN018
     FM301700 08006KT P6SM BKN050=

USA.gov is the U.S. government's official web portal to all federal, state and local government web resources and services.